Time;durP1;ratioP1;P1;durP2;ratioP2;P2;SDS_P1;SDS_P2;PMS_P1;PMS_P2;Temp;Humidity;BMP_temperature;BMP_pressure;BME280_temperature;BME280_humidity;BME280_pressure;Samples;Min_cycle;Max_cycle;Signal;HPM_P1;HPM_P2
2022/07/07 00:02:04;;;;;;;;;;;21.10;85.50;;;;;;5032773;28;19909;-72
2022/07/07 00:04:30;;;;;;;;;;;21.00;85.40;;;;;;5033751;28;19905;-72
2022/07/07 00:06:55;;;;;;;;;;;21.00;85.60;;;;;;5032817;28;20004;-72
2022/07/07 00:09:21;;;;;;;;;;;21.00;85.80;;;;;;5032945;28;20268;-72
2022/07/07 00:11:46;;;;;;;;;;;21.00;86.00;;;;;;5033332;28;19912;-72
2022/07/07 00:14:12;;;;;;;;;;;21.00;86.00;;;;;;5032896;28;19912;-72
2022/07/07 00:16:37;;;;;;;;;;;21.00;85.90;;;;;;5033441;28;19905;-72
2022/07/07 00:19:03;;;;;;;;;;;20.90;86.00;;;;;;5032890;28;19928;-72
2022/07/07 00:21:29;;;;;;;;;;;20.90;86.40;;;;;;5033213;28;19909;-73
2022/07/07 00:23:55;;;;;;;;;;;20.90;86.40;;;;;;5033171;28;19920;-73
2022/07/07 00:26:20;;;;;;;;;;;20.90;86.40;;;;;;5032784;28;20352;-73
2022/07/07 00:28:46;;;;;;;;;;;20.80;86.90;;;;;;5033458;28;19924;-73
2022/07/07 00:31:12;;;;;;;;;;;20.80;87.00;;;;;;5032710;28;19905;-73
2022/07/07 00:33:37;;;;;;;;;;;20.80;87.30;;;;;;5033156;28;19905;-73
2022/07/07 00:36:03;;;;;;;;;;;20.70;86.60;;;;;;5032694;28;19905;-72
2022/07/07 00:38:29;;;;;;;;;;;20.70;86.90;;;;;;5033073;28;19909;-72
2022/07/07 00:40:54;;;;;;;;;;;20.70;87.50;;;;;;5033134;28;19905;-72
2022/07/07 00:43:20;;;;;;;;;;;20.60;87.80;;;;;;5036000;28;19959;-73
2022/07/07 00:45:47;;;;;;;;;;;20.60;87.70;;;;;;5036951;28;19905;-73
2022/07/07 00:48:13;;;;;;;;;;;20.60;88.30;;;;;;5036418;28;20059;-73
2022/07/07 00:50:39;;;;;;;;;;;20.60;88.50;;;;;;5036516;28;19951;-73
2022/07/07 00:53:04;;;;;;;;;;;20.60;88.10;;;;;;5036441;28;19951;-73
2022/07/07 00:55:30;;;;;;;;;;;20.60;88.00;;;;;;5036517;28;19909;-73
2022/07/07 00:57:55;;;;;;;;;;;20.50;88.30;;;;;;5036737;28;19951;-73
2022/07/07 01:00:21;;;;;;;;;;;20.60;87.70;;;;;;5035902;28;19905;-73
2022/07/07 01:02:46;;;;;;;;;;;20.50;86.90;;;;;;5036582;28;19950;-73
2022/07/07 01:05:12;;;;;;;;;;;20.50;86.50;;;;;;5035902;28;19905;-73
2022/07/07 01:07:38;;;;;;;;;;;20.50;86.00;;;;;;5036587;28;19909;-73
2022/07/07 01:10:05;;;;;;;;;;;20.50;86.50;;;;;;5036378;28;19913;-73
2022/07/07 01:12:34;;;;;;;;;;;20.50;86.50;;;;;;5036505;28;19913;-73
2022/07/07 01:15:00;;;;;;;;;;;20.40;86.10;;;;;;5036449;28;19905;-73
2022/07/07 01:17:25;;;;;;;;;;;20.40;85.90;;;;;;5035722;28;19905;-73
2022/07/07 01:19:51;;;;;;;;;;;20.40;86.40;;;;;;5036343;28;19905;-73
2022/07/07 01:22:17;;;;;;;;;;;20.30;86.30;;;;;;5035559;28;19905;-73
2022/07/07 01:24:42;;;;;;;;;;;20.30;86.70;;;;;;5036550;28;19905;-73
2022/07/07 01:27:08;;;;;;;;;;;20.30;87.20;;;;;;5035617;28;19924;-73
2022/07/07 01:29:37;;;;;;;;;;;20.20;86.80;;;;;;5035833;28;19919;-73
2022/07/07 01:32:04;;;;;;;;;;;20.20;87.40;;;;;;5035981;28;19911;-73
2022/07/07 01:34:30;;;;;;;;;;;20.20;87.80;;;;;;5035646;28;20020;-72
2022/07/07 01:36:55;;;;;;;;;;;20.20;87.70;;;;;;5036281;28;20353;-72
2022/07/07 01:39:21;;;;;;;;;;;20.10;87.90;;;;;;5035149;28;19905;-72
2022/07/07 01:41:46;;;;;;;;;;;20.10;88.20;;;;;;5035917;28;19959;-72
2022/07/07 01:44:12;;;;;;;;;;;20.10;88.00;;;;;;5035550;28;19931;-72
2022/07/07 01:46:37;;;;;;;;;;;20.20;88.20;;;;;;5018290;28;19914;-71
2022/07/07 01:49:03;;;;;;;;;;;20.10;88.20;;;;;;5035747;28;20361;-72
2022/07/07 01:51:28;;;;;;;;;;;20.10;88.30;;;;;;5017701;28;19909;-72
2022/07/07 01:53:54;;;;;;;;;;;20.10;88.80;;;;;;5034632;28;19912;-73
2022/07/07 01:56:19;;;;;;;;;;;20.00;89.00;;;;;;5035267;28;19952;-73
2022/07/07 01:58:45;;;;;;;;;;;20.10;89.40;;;;;;5035480;28;19905;-73
2022/07/07 02:01:11;;;;;;;;;;;20.10;89.00;;;;;;5034924;28;19905;-71
2022/07/07 02:03:36;;;;;;;;;;;20.10;89.20;;;;;;5034688;28;19905;-73
2022/07/07 02:06:02;;;;;;;;;;;20.10;89.30;;;;;;5035464;28;19928;-73
2022/07/07 02:08:27;;;;;;;;;;;20.10;88.70;;;;;;5034732;28;20284;-73
2022/07/07 02:13:37;;;;;;;;;;;20.10;88.60;;;;;;5035450;28;19912;-73
2022/07/07 02:16:02;;;;;;;;;;;20.10;88.50;;;;;;5035324;28;19905;-73
2022/07/07 02:18:28;;;;;;;;;;;20.10;88.30;;;;;;5034808;28;19920;-73
2022/07/07 02:20:54;;;;;;;;;;;20.20;88.00;;;;;;5035176;28;19958;-73
2022/07/07 02:23:19;;;;;;;;;;;20.10;88.10;;;;;;5034788;28;20268;-73
2022/07/07 02:25:45;;;;;;;;;;;20.10;87.70;;;;;;5035108;28;19948;-73
2022/07/07 02:28:11;;;;;;;;;;;20.10;87.90;;;;;;5034973;28;20391;-73
2022/07/07 02:30:36;;;;;;;;;;;20.10;87.90;;;;;;5035003;28;19948;-73
2022/07/07 02:33:02;;;;;;;;;;;20.10;87.80;;;;;;5035060;28;19905;-73
2022/07/07 02:35:28;;;;;;;;;;;20.10;87.90;;;;;;5034589;28;19959;-72
2022/07/07 02:37:53;;;;;;;;;;;20.10;87.90;;;;;;5034654;28;19905;-72
2022/07/07 02:40:19;;;;;;;;;;;20.10;87.60;;;;;;5034477;28;19909;-73
2022/07/07 02:42:44;;;;;;;;;;;20.10;87.70;;;;;;5034804;28;19948;-72
2022/07/07 02:45:10;;;;;;;;;;;20.10;87.60;;;;;;5034392;28;19904;-72
2022/07/07 02:47:35;;;;;;;;;;;20.00;87.60;;;;;;5034272;28;19905;-72
2022/07/07 02:50:01;;;;;;;;;;;20.00;87.80;;;;;;5034540;28;19913;-72
2022/07/07 02:52:26;;;;;;;;;;;19.90;87.70;;;;;;5034482;28;19905;-72
2022/07/07 02:54:52;;;;;;;;;;;19.90;88.00;;;;;;5034457;28;20237;-72
2022/07/07 02:57:17;;;;;;;;;;;19.90;88.00;;;;;;5033794;28;19905;-70
2022/07/07 02:59:42;;;;;;;;;;;19.90;88.10;;;;;;5034197;28;19912;-72
2022/07/07 03:02:08;;;;;;;;;;;19.80;88.10;;;;;;5034359;28;19916;-72
2022/07/07 03:04:34;;;;;;;;;;;19.90;88.60;;;;;;5033474;28;20341;-72
2022/07/07 03:06:59;;;;;;;;;;;19.80;88.60;;;;;;5034411;28;19920;-73
2022/07/07 03:09:25;;;;;;;;;;;19.80;88.80;;;;;;5033730;28;20399;-73
2022/07/07 03:11:50;;;;;;;;;;;19.90;88.40;;;;;;5034699;28;19905;-72
2022/07/07 03:14:15;;;;;;;;;;;19.80;87.90;;;;;;5033780;28;19912;-72
2022/07/07 03:16:41;;;;;;;;;;;19.80;87.40;;;;;;5034501;28;19905;-72
2022/07/07 03:19:06;;;;;;;;;;;19.80;87.70;;;;;;5034061;28;20249;-72
2022/07/07 03:21:32;;;;;;;;;;;19.80;87.50;;;;;;5033346;28;19955;-72
2022/07/07 03:23:58;;;;;;;;;;;19.80;87.50;;;;;;5034154;28;19905;-73
2022/07/07 03:26:23;;;;;;;;;;;19.80;87.50;;;;;;5033584;28;19905;-73
2022/07/07 03:28:49;;;;;;;;;;;19.80;87.40;;;;;;5033286;28;19921;-73
2022/07/07 03:31:14;;;;;;;;;;;19.80;87.80;;;;;;5033927;28;19905;-73
2022/07/07 03:33:40;;;;;;;;;;;19.80;87.70;;;;;;5015716;28;20284;-73
2022/07/07 03:36:05;;;;;;;;;;;19.80;87.40;;;;;;5033476;28;19921;-72
2022/07/07 03:38:31;;;;;;;;;;;19.80;87.10;;;;;;5033397;28;19905;-72
2022/07/07 03:40:56;;;;;;;;;;;19.80;87.90;;;;;;5033690;28;19912;-72
2022/07/07 03:43:22;;;;;;;;;;;19.80;87.50;;;;;;5032734;28;20380;-74
2022/07/07 03:45:48;;;;;;;;;;;19.80;87.50;;;;;;5033427;28;19995;-72
2022/07/07 03:48:13;;;;;;;;;;;19.80;87.20;;;;;;5033418;28;19919;-72
2022/07/07 03:50:39;;;;;;;;;;;19.80;86.80;;;;;;5032617;28;19909;-72
2022/07/07 03:53:04;;;;;;;;;;;19.80;86.80;;;;;;5033285;28;19905;-72
2022/07/07 03:55:30;;;;;;;;;;;19.80;87.10;;;;;;5032575;28;20340;-73
2022/07/07 03:57:55;;;;;;;;;;;19.80;87.50;;;;;;5033227;28;19911;-72
2022/07/07 04:00:21;;;;;;;;;;;19.80;87.70;;;;;;5032751;28;19908;-73
2022/07/07 04:02:46;;;;;;;;;;;19.80;87.80;;;;;;5033021;28;19912;-72
2022/07/07 04:05:12;;;;;;;;;;;19.80;87.30;;;;;;5032950;28;19999;-72
2022/07/07 04:07:38;;;;;;;;;;;19.80;87.40;;;;;;5032555;28;19905;-72
2022/07/07 04:10:03;;;;;;;;;;;19.90;87.80;;;;;;5032653;28;19954;-72
2022/07/07 04:12:29;;;;;;;;;;;19.90;87.60;;;;;;5032325;28;19963;-73
2022/07/07 04:14:55;;;;;;;;;;;19.90;87.50;;;;;;5033042;28;19905;-72
2022/07/07 04:17:21;;;;;;;;;;;19.90;87.40;;;;;;5036459;28;19912;-73
2022/07/07 04:19:46;;;;;;;;;;;19.90;87.00;;;;;;5039302;28;19905;-72
2022/07/07 04:22:12;;;;;;;;;;;19.90;87.60;;;;;;5039518;28;20280;-72
2022/07/07 04:24:37;;;;;;;;;;;19.90;87.60;;;;;;5039110;28;19959;-73
2022/07/07 04:27:03;;;;;;;;;;;19.90;87.50;;;;;;5039168;28;20015;-72
2022/07/07 04:29:29;;;;;;;;;;;19.90;88.60;;;;;;5038920;28;19917;-72
2022/07/07 04:31:54;;;;;;;;;;;19.90;89.00;;;;;;5039436;28;19912;-72
2022/07/07 04:34:22;;;;;;;;;;;19.90;88.90;;;;;;5039434;28;19928;-72
2022/07/07 04:36:48;;;;;;;;;;;20.00;88.10;;;;;;5039385;28;20360;-72
2022/07/07 04:39:13;;;;;;;;;;;20.00;87.90;;;;;;5039099;28;19905;-73
2022/07/07 04:41:39;;;;;;;;;;;20.00;87.60;;;;;;5038718;28;19999;-72
2022/07/07 04:44:05;;;;;;;;;;;20.10;87.10;;;;;;5038983;28;20353;-72
2022/07/07 04:46:31;;;;;;;;;;;20.10;86.10;;;;;;5038960;28;20317;-72
2022/07/07 04:48:56;;;;;;;;;;;20.10;85.70;;;;;;5039304;28;19963;-72
2022/07/07 04:51:23;;;;;;;;;;;20.10;85.60;;;;;;5038846;28;19909;-72
2022/07/07 04:53:49;;;;;;;;;;;20.10;85.60;;;;;;5039110;28;19908;-72
2022/07/07 04:56:14;;;;;;;;;;;20.20;85.60;;;;;;5039391;28;19909;-72
2022/07/07 04:58:41;;;;;;;;;;;20.20;85.40;;;;;;5038773;28;19911;-72
2022/07/07 05:01:07;;;;;;;;;;;20.20;85.30;;;;;;5039054;28;19959;-72
2022/07/07 05:03:33;;;;;;;;;;;20.20;85.20;;;;;;5038484;28;19909;-72
2022/07/07 05:05:59;;;;;;;;;;;20.30;84.30;;;;;;5039158;28;19909;-72
2022/07/07 05:08:24;;;;;;;;;;;20.30;83.70;;;;;;5038655;28;19917;-72
2022/07/07 05:10:50;;;;;;;;;;;20.30;84.00;;;;;;5020915;28;20363;-72
2022/07/07 05:13:16;;;;;;;;;;;20.30;83.40;;;;;;5038869;28;20003;-72
2022/07/07 05:15:41;;;;;;;;;;;20.30;83.70;;;;;;5038912;28;20025;-73
2022/07/07 05:18:07;;;;;;;;;;;20.40;83.70;;;;;;5038959;28;19958;-72
2022/07/07 05:20:32;;;;;;;;;;;20.40;83.30;;;;;;5038547;28;19992;-72
2022/07/07 05:22:58;;;;;;;;;;;20.40;82.10;;;;;;5038712;28;20393;-73
2022/07/07 05:25:24;;;;;;;;;;;20.50;82.40;;;;;;5039041;28;19944;-72
2022/07/07 05:27:49;;;;;;;;;;;20.50;82.00;;;;;;5038161;28;20364;-72
2022/07/07 05:30:16;;;;;;;;;;;20.60;81.70;;;;;;5035751;28;19939;-71
2022/07/07 05:32:41;;;;;;;;;;;20.70;81.50;;;;;;5035374;28;19905;-72
2022/07/07 05:35:07;;;;;;;;;;;20.70;81.30;;;;;;5035730;28;19992;-72
2022/07/07 05:37:33;;;;;;;;;;;20.80;82.10;;;;;;5034536;28;19905;-73
2022/07/07 05:39:58;;;;;;;;;;;20.80;81.80;;;;;;5035244;28;19924;-73
2022/07/07 05:42:24;;;;;;;;;;;20.80;82.00;;;;;;5035461;28;19905;-73
2022/07/07 05:44:49;;;;;;;;;;;20.80;82.00;;;;;;5035305;28;20393;-73
2022/07/07 05:47:15;;;;;;;;;;;21.00;82.60;;;;;;5035415;28;19905;-72
2022/07/07 05:49:41;;;;;;;;;;;21.10;82.10;;;;;;5034902;28;19971;-72
2022/07/07 05:52:07;;;;;;;;;;;21.10;79.60;;;;;;5035500;28;19967;-72
2022/07/07 05:54:32;;;;;;;;;;;21.10;78.40;;;;;;5035089;28;19945;-73
2022/07/07 05:56:58;;;;;;;;;;;21.10;77.20;;;;;;5035056;28;20366;-72
2022/07/07 05:59:23;;;;;;;;;;;21.10;76.70;;;;;;5035330;28;19948;-73
2022/07/07 06:01:49;;;;;;;;;;;21.20;76.00;;;;;;5034525;28;20107;-72
2022/07/07 06:04:15;;;;;;;;;;;21.20;76.00;;;;;;5034870;28;19927;-72
2022/07/07 06:06:40;;;;;;;;;;;21.30;76.10;;;;;;5034756;28;20299;-73
2022/07/07 06:09:06;;;;;;;;;;;21.30;74.70;;;;;;5033645;28;19980;-72
2022/07/07 06:11:31;;;;;;;;;;;21.30;74.00;;;;;;5034156;28;19905;-73
2022/07/07 06:13:57;;;;;;;;;;;21.30;73.60;;;;;;5035283;28;19905;-73
2022/07/07 06:16:38;;;;;;;;;;;21.30;74.00;;;;;;5034916;28;19924;-73
2022/07/07 06:19:06;;;;;;;;;;;21.30;73.30;;;;;;5034838;28;19905;-74
2022/07/07 06:21:31;;;;;;;;;;;21.30;73.30;;;;;;5034422;28;19905;-75
2022/07/07 06:23:57;;;;;;;;;;;21.30;72.20;;;;;;5034147;28;19995;-75
2022/07/07 06:26:23;;;;;;;;;;;21.30;72.20;;;;;;5034760;28;20342;-74
2022/07/07 06:28:48;;;;;;;;;;;21.30;72.40;;;;;;5033581;28;19921;-74
2022/07/07 06:31:14;;;;;;;;;;;21.40;71.60;;;;;;5034239;28;20250;-75
2022/07/07 06:33:40;;;;;;;;;;;21.50;70.60;;;;;;5033305;28;19905;-75
2022/07/07 06:36:05;;;;;;;;;;;21.60;69.90;;;;;;5033827;28;19982;-74
2022/07/07 06:38:31;;;;;;;;;;;21.60;69.60;;;;;;5034050;28;19999;-74
2022/07/07 06:40:57;;;;;;;;;;;21.60;67.50;;;;;;5033446;28;19958;-75
2022/07/07 06:43:22;;;;;;;;;;;21.60;67.00;;;;;;5034081;28;19905;-74
2022/07/07 06:45:48;;;;;;;;;;;21.90;68.50;;;;;;5033704;28;20008;-74
2022/07/07 06:48:14;;;;;;;;;;;22.20;64.70;;;;;;5033777;28;19919;-75
2022/07/07 06:50:39;;;;;;;;;;;22.60;62.70;;;;;;5033430;28;19912;-74
2022/07/07 06:53:05;;;;;;;;;;;24.00;62.20;;;;;;5033912;28;19905;-74
2022/07/07 06:55:30;;;;;;;;;;;25.10;57.90;;;;;;5033701;28;19905;-74
2022/07/07 06:57:56;;;;;;;;;;;25.50;54.60;;;;;;5033275;28;19980;-75
2022/07/07 07:00:21;;;;;;;;;;;25.50;53.50;;;;;;5033822;28;20345;-74
2022/07/07 07:02:48;;;;;;;;;;;26.10;51.90;;;;;;5033655;28;19916;-74
2022/07/07 07:05:14;;;;;;;;;;;26.50;50.20;;;;;;5033764;28;19905;-74
2022/07/07 07:07:40;;;;;;;;;;;26.60;48.20;;;;;;5033465;28;19912;-74
2022/07/07 07:10:06;;;;;;;;;;;26.80;48.00;;;;;;5033973;28;20380;-74
2022/07/07 07:12:31;;;;;;;;;;;27.00;47.60;;;;;;5033798;28;20362;-74
2022/07/07 07:14:57;;;;;;;;;;;27.20;46.20;;;;;;5033488;28;19905;-75
2022/07/07 07:17:22;;;;;;;;;;;27.30;45.60;;;;;;5033854;28;19905;-75
2022/07/07 07:19:48;;;;;;;;;;;27.50;45.80;;;;;;5033351;28;19988;-75
2022/07/07 07:22:14;;;;;;;;;;;27.80;45.90;;;;;;5033332;28;19996;-75
2022/07/07 07:24:39;;;;;;;;;;;28.10;44.10;;;;;;5033067;28;20357;-74
2022/07/07 07:27:05;;;;;;;;;;;28.60;44.00;;;;;;5033443;28;19924;-75
2022/07/07 07:29:30;;;;;;;;;;;29.00;44.00;;;;;;5033565;28;20341;-74
2022/07/07 07:31:56;;;;;;;;;;;29.60;42.50;;;;;;5032992;28;19951;-75
2022/07/07 07:34:21;;;;;;;;;;;29.80;40.60;;;;;;5033342;28;20007;-73
2022/07/07 07:36:47;;;;;;;;;;;30.00;40.90;;;;;;5033383;28;20310;-74
2022/07/07 07:39:12;;;;;;;;;;;30.20;39.90;;;;;;5033205;28;19912;-74
2022/07/07 07:41:38;;;;;;;;;;;30.50;40.10;;;;;;5032375;28;19909;-74
2022/07/07 07:44:04;;;;;;;;;;;30.40;38.80;;;;;;5032804;28;19959;-73
2022/07/07 07:46:30;;;;;;;;;;;30.20;39.20;;;;;;5032622;28;19991;-74
2022/07/07 07:48:55;;;;;;;;;;;30.30;38.60;;;;;;5032765;28;19940;-73
2022/07/07 07:51:21;;;;;;;;;;;30.30;38.50;;;;;;5014741;28;20265;-73
2022/07/07 07:53:46;;;;;;;;;;;30.60;38.30;;;;;;5032921;28;19912;-74
2022/07/07 07:56:12;;;;;;;;;;;30.30;37.90;;;;;;5033290;28;20366;-74
2022/07/07 07:58:37;;;;;;;;;;;30.50;38.50;;;;;;5032875;28;19940;-74
2022/07/07 08:01:03;;;;;;;;;;;30.30;37.90;;;;;;5033022;28;19912;-74
2022/07/07 08:03:29;;;;;;;;;;;30.00;37.70;;;;;;5033123;28;20273;-74
2022/07/07 08:05:54;;;;;;;;;;;29.70;38.10;;;;;;5032601;28;19909;-74
2022/07/07 08:08:20;;;;;;;;;;;29.50;38.80;;;;;;5033204;28;19984;-74
2022/07/07 08:10:45;;;;;;;;;;;29.00;38.90;;;;;;5032141;28;20014;-74
2022/07/07 08:13:11;;;;;;;;;;;28.80;39.40;;;;;;5032937;28;19913;-74
2022/07/07 08:15:36;;;;;;;;;;;28.60;40.00;;;;;;5033039;28;19905;-74
2022/07/07 08:18:03;;;;;;;;;;;28.40;39.80;;;;;;5032606;28;19905;-74
2022/07/07 08:20:29;;;;;;;;;;;28.20;40.00;;;;;;5032905;28;20015;-74
2022/07/07 08:22:54;;;;;;;;;;;28.10;40.50;;;;;;5032118;28;19905;-74
2022/07/07 08:25:20;;;;;;;;;;;28.00;40.10;;;;;;5032512;28;19905;-74
2022/07/07 08:27:46;;;;;;;;;;;27.80;40.50;;;;;;5011109;28;19918;-74
2022/07/07 08:30:12;;;;;;;;;;;27.80;40.90;;;;;;5013233;28;19917;-74
2022/07/07 08:32:37;;;;;;;;;;;27.60;40.60;;;;;;5012821;28;20301;-74
2022/07/07 08:35:03;;;;;;;;;;;27.40;40.60;;;;;;5012789;28;19905;-74
2022/07/07 08:37:29;;;;;;;;;;;27.40;41.10;;;;;;5013029;28;20008;-74
2022/07/07 08:39:54;;;;;;;;;;;27.30;40.90;;;;;;5012406;28;20360;-74
2022/07/07 08:42:20;;;;;;;;;;;27.20;40.30;;;;;;5012802;28;19905;-74
2022/07/07 08:44:46;;;;;;;;;;;27.10;40.70;;;;;;5012569;28;19906;-74
2022/07/07 08:47:11;;;;;;;;;;;27.00;41.20;;;;;;5012971;28;19906;-74
2022/07/07 08:49:37;;;;;;;;;;;26.90;41.20;;;;;;5012938;28;19944;-74
2022/07/07 08:52:03;;;;;;;;;;;26.90;41.30;;;;;;5012511;28;19905;-74
2022/07/07 08:54:28;;;;;;;;;;;26.90;41.30;;;;;;5012990;28;19907;-75
2022/07/07 08:56:54;;;;;;;;;;;26.80;41.10;;;;;;5012513;28;19912;-74
2022/07/07 08:59:20;;;;;;;;;;;26.70;40.60;;;;;;5012991;28;19905;-74
2022/07/07 09:01:56;;;;;;;;;;;26.50;40.60;;;;;;5012177;28;19967;-75
2022/07/07 09:04:22;;;;;;;;;;;26.40;40.10;;;;;;5016198;28;19956;-75
2022/07/07 09:06:53;;;;;;;;;;;26.30;40.50;;;;;;5016152;28;19909;-74
2022/07/07 09:09:36;;;;;;;;;;;26.30;41.40;;;;;;5016521;28;19968;-75
2022/07/07 09:12:03;;;;;;;;;;;26.10;42.10;;;;;;5015873;28;20316;-75
2022/07/07 09:14:37;;;;;;;;;;;26.10;42.70;;;;;;5016223;28;20326;-75
2022/07/07 09:17:03;;;;;;;;;;;25.90;42.70;;;;;;5015960;28;19913;-75
2022/07/07 09:19:28;;;;;;;;;;;25.80;43.40;;;;;;5016358;28;19905;-73
2022/07/07 09:21:54;;;;;;;;;;;25.80;43.80;;;;;;5016108;28;19999;-74
2022/07/07 09:24:19;;;;;;;;;;;25.60;43.80;;;;;;5015889;28;20353;-73
2022/07/07 09:26:46;;;;;;;;;;;25.50;44.40;;;;;;5017330;28;19905;-74
2022/07/07 09:29:13;;;;;;;;;;;25.40;44.50;;;;;;5035487;28;20369;-70
2022/07/07 09:32:00;;;;;;;;;;;25.20;44.80;;;;;;5035676;28;19909;-77
2022/07/07 09:34:27;;;;;;;;;;;25.00;45.10;;;;;;5036289;28;19905;-73
2022/07/07 09:39:41;;;;;;;;;;;24.70;45.80;;;;;;5035766;28;19939;-74
2022/07/07 09:42:26;;;;;;;;;;;24.50;46.00;;;;;;5035092;28;19909;-74
2022/07/07 09:45:11;;;;;;;;;;;24.50;45.60;;;;;;5035106;28;20357;-74
2022/07/07 09:47:37;;;;;;;;;;;24.30;45.10;;;;;;5035028;28;19905;-74
2022/07/07 09:50:07;;;;;;;;;;;24.20;43.00;;;;;;5034646;28;19919;-74
2022/07/07 09:52:34;;;;;;;;;;;24.10;43.40;;;;;;5035610;28;19915;-74
2022/07/07 09:55:00;;;;;;;;;;;24.00;42.80;;;;;;5034885;28;19908;-74
2022/07/07 09:57:26;;;;;;;;;;;23.90;42.50;;;;;;5035063;28;20028;-73
2022/07/07 09:59:51;;;;;;;;;;;23.70;43.00;;;;;;5034791;28;20360;-73
2022/07/07 10:02:21;;;;;;;;;;;23.60;43.60;;;;;;5034979;28;19911;-73
2022/07/07 10:04:48;;;;;;;;;;;23.40;43.70;;;;;;5033562;28;19905;-74
2022/07/07 10:07:16;;;;;;;;;;;23.40;44.30;;;;;;5033726;28;19955;-74
2022/07/07 10:09:44;;;;;;;;;;;23.30;45.20;;;;;;5031127;28;19913;-73
2022/07/07 10:12:10;;;;;;;;;;;23.20;45.60;;;;;;5033255;28;19909;-75
2022/07/07 10:14:39;;;;;;;;;;;23.20;46.00;;;;;;5032328;28;19924;-74
2022/07/07 10:17:05;;;;;;;;;;;23.10;46.20;;;;;;5032928;28;19932;-74
2022/07/07 10:19:31;;;;;;;;;;;23.10;46.70;;;;;;5033412;28;19909;-73
2022/07/07 10:21:57;;;;;;;;;;;23.10;47.10;;;;;;5033749;28;19912;-74
2022/07/07 10:24:25;;;;;;;;;;;23.00;47.30;;;;;;5033466;28;19905;-74
2022/07/07 10:26:52;;;;;;;;;;;23.00;47.70;;;;;;5032688;28;19944;-74
2022/07/07 10:29:35;;;;;;;;;;;23.00;48.00;;;;;;5032648;28;19920;-74
2022/07/07 10:32:01;;;;;;;;;;;23.00;48.00;;;;;;5033220;28;20300;-74
2022/07/07 10:34:33;;;;;;;;;;;22.90;47.70;;;;;;5034644;28;20001;-74
2022/07/07 10:37:03;;;;;;;;;;;22.90;47.60;;;;;;5034417;28;19905;-73
2022/07/07 10:39:32;;;;;;;;;;;22.90;48.10;;;;;;5034849;28;19905;-73
2022/07/07 10:42:06;;;;;;;;;;;22.90;48.30;;;;;;5033997;28;19995;-74
2022/07/07 10:44:35;;;;;;;;;;;22.90;48.10;;;;;;5034264;28;19905;-74
2022/07/07 10:47:03;;;;;;;;;;;22.90;48.30;;;;;;5034109;28;19905;-74
2022/07/07 10:49:46;;;;;;;;;;;22.90;48.70;;;;;;5034137;28;19956;-74
2022/07/07 10:52:16;;;;;;;;;;;22.80;48.70;;;;;;5034085;28;19997;-73
2022/07/07 10:54:43;;;;;;;;;;;22.80;48.60;;;;;;5033824;28;19912;-73
2022/07/07 10:57:12;;;;;;;;;;;22.80;48.70;;;;;;5032850;28;19975;-73
2022/07/07 10:59:58;;;;;;;;;;;22.70;49.10;;;;;;5034144;28;19909;-74
2022/07/07 11:02:34;;;;;;;;;;;22.80;48.80;;;;;;5034070;28;19932;-73
2022/07/07 11:05:01;;;;;;;;;;;22.80;49.10;;;;;;5033705;28;19909;-73
2022/07/07 11:07:28;;;;;;;;;;;22.80;49.50;;;;;;5034145;28;19947;-73
2022/07/07 11:09:59;;;;;;;;;;;22.80;49.80;;;;;;5033600;28;19959;-73
2022/07/07 11:12:40;;;;;;;;;;;22.70;49.50;;;;;;5033749;28;19905;-73
2022/07/07 11:15:17;;;;;;;;;;;22.70;49.50;;;;;;5033387;28;19905;-75
2022/07/07 11:17:44;;;;;;;;;;;22.80;49.70;;;;;;5033739;28;19905;-73
2022/07/07 11:20:13;;;;;;;;;;;22.70;49.90;;;;;;5033289;28;19913;-73
2022/07/07 11:22:42;;;;;;;;;;;22.70;50.20;;;;;;5033338;28;19915;-72
2022/07/07 11:25:08;;;;;;;;;;;22.80;50.30;;;;;;5033065;28;20409;-73
2022/07/07 11:27:36;;;;;;;;;;;22.80;50.90;;;;;;5033143;28;20207;-75
2022/07/07 11:30:01;;;;;;;;;;;22.80;51.00;;;;;;5031333;28;19917;-73
2022/07/07 11:32:35;;;;;;;;;;;22.80;50.70;;;;;;5031880;28;19916;-74
2022/07/07 11:35:04;;;;;;;;;;;22.80;49.80;;;;;;5027397;28;19905;-74
2022/07/07 11:37:31;;;;;;;;;;;22.90;49.60;;;;;;5031770;28;19950;-73
2022/07/07 11:39:57;;;;;;;;;;;22.90;48.50;;;;;;5031206;28;19916;-74
2022/07/07 11:42:23;;;;;;;;;;;22.80;46.80;;;;;;5031556;28;20269;-73
2022/07/07 11:44:48;;;;;;;;;;;22.80;45.20;;;;;;5031827;28;19924;-74
2022/07/07 11:47:14;;;;;;;;;;;22.70;45.00;;;;;;5032024;28;20377;-73
2022/07/07 11:49:40;;;;;;;;;;;22.60;44.60;;;;;;5031580;28;19913;-74
2022/07/07 11:52:10;;;;;;;;;;;22.40;44.30;;;;;;5031505;28;20316;-74
2022/07/07 11:54:42;;;;;;;;;;;22.30;44.60;;;;;;5031702;28;19917;-73
2022/07/07 11:57:07;;;;;;;;;;;22.20;45.50;;;;;;5031143;28;20376;-73
2022/07/07 11:59:33;;;;;;;;;;;22.00;45.80;;;;;;5031554;28;19987;-74
2022/07/07 12:01:58;;;;;;;;;;;21.90;46.40;;;;;;5030771;28;19919;-74
2022/07/07 12:04:24;;;;;;;;;;;21.70;46.30;;;;;;5030874;28;19905;-73
2022/07/07 12:06:52;;;;;;;;;;;21.60;46.90;;;;;;5030769;28;20361;-73
2022/07/07 12:09:19;;;;;;;;;;;21.60;47.40;;;;;;5030684;28;20019;-73
2022/07/07 12:11:45;;;;;;;;;;;21.50;48.30;;;;;;5032226;28;19909;-73
2022/07/07 12:14:11;;;;;;;;;;;21.40;49.30;;;;;;5031295;28;20257;-74
2022/07/07 12:16:44;;;;;;;;;;;21.30;50.40;;;;;;5031631;28;20046;-74
2022/07/07 12:19:09;;;;;;;;;;;21.20;51.40;;;;;;5031419;28;19917;-73
2022/07/07 12:21:42;;;;;;;;;;;21.20;52.50;;;;;;5032393;28;19905;-76
2022/07/07 12:24:08;;;;;;;;;;;21.10;53.90;;;;;;5032020;28;19905;-75
2022/07/07 12:26:41;;;;;;;;;;;21.00;54.90;;;;;;5030926;28;20387;-75
2022/07/07 12:29:10;;;;;;;;;;;20.90;55.30;;;;;;5030816;28;19917;-75
2022/07/07 12:31:35;;;;;;;;;;;20.80;55.90;;;;;;5030967;28;19981;-75
2022/07/07 12:34:11;;;;;;;;;;;20.70;56.40;;;;;;5030551;28;19964;-75
2022/07/07 12:36:38;;;;;;;;;;;20.70;57.30;;;;;;5030566;28;19909;-75
2022/07/07 12:39:04;;;;;;;;;;;20.50;58.10;;;;;;5033153;28;19967;-73
2022/07/07 12:41:32;;;;;;;;;;;20.50;59.00;;;;;;5035122;28;19912;-74
2022/07/07 12:44:10;;;;;;;;;;;20.40;59.40;;;;;;5017315;28;19955;-74
2022/07/07 12:46:36;;;;;;;;;;;20.30;60.20;;;;;;5022250;28;20385;-76
2022/07/07 12:49:03;;;;;;;;;;;20.10;61.30;;;;;;5015848;28;19920;-74
2022/07/07 12:51:30;;;;;;;;;;;20.10;62.50;;;;;;5016149;28;19906;-73
2022/07/07 12:53:56;;;;;;;;;;;20.00;63.30;;;;;;5020274;28;20263;-70
2022/07/07 12:56:29;;;;;;;;;;;20.00;63.70;;;;;;5025193;28;20320;-70
2022/07/07 12:58:55;;;;;;;;;;;19.90;64.10;;;;;;5032361;28;19908;-70
2022/07/07 13:01:21;;;;;;;;;;;19.90;64.40;;;;;;5035230;28;19912;-71
2022/07/07 13:03:48;;;;;;;;;;;19.80;65.10;;;;;;5026536;28;19987;-71
2022/07/07 13:06:14;;;;;;;;;;;19.80;65.80;;;;;;5034560;28;19905;-70
2022/07/07 13:08:41;;;;;;;;;;;19.70;66.60;;;;;;5023871;28;19924;-70
2022/07/07 13:11:07;;;;;;;;;;;19.70;67.70;;;;;;5024458;28;19916;-71
2022/07/07 13:13:32;;;;;;;;;;;19.70;68.30;;;;;;5034351;28;19909;-71
2022/07/07 13:15:58;;;;;;;;;;;19.60;68.30;;;;;;5034508;28;20353;-70
2022/07/07 13:18:26;;;;;;;;;;;19.70;68.40;;;;;;5034774;28;19905;-70
2022/07/07 13:20:59;;;;;;;;;;;19.70;68.10;;;;;;5033829;28;20380;-71
2022/07/07 13:23:25;;;;;;;;;;;19.70;68.00;;;;;;5032556;28;19905;-70
2022/07/07 13:25:51;;;;;;;;;;;19.70;67.20;;;;;;5016927;28;20312;-70
2022/07/07 13:28:17;;;;;;;;;;;19.70;66.60;;;;;;5022956;28;19917;-70
2022/07/07 13:30:43;;;;;;;;;;;19.80;65.00;;;;;;5034500;28;20276;-70
2022/07/07 13:33:08;;;;;;;;;;;19.80;65.20;;;;;;5033986;28;19905;-71
2022/07/07 13:35:34;;;;;;;;;;;19.80;65.10;;;;;;5023497;28;20032;-70
2022/07/07 13:38:00;;;;;;;;;;;19.90;65.00;;;;;;5025209;28;19909;-70
2022/07/07 13:40:25;;;;;;;;;;;19.90;64.70;;;;;;5024727;28;20012;-71
2022/07/07 13:42:51;;;;;;;;;;;19.90;63.60;;;;;;5031250;28;19963;-71
2022/07/07 13:45:16;;;;;;;;;;;20.00;63.40;;;;;;5025740;28;19951;-71
2022/07/07 13:47:42;;;;;;;;;;;20.00;64.20;;;;;;5024593;28;19908;-71
2022/07/07 13:50:07;;;;;;;;;;;20.00;64.90;;;;;;5022865;28;20040;-70
2022/07/07 13:52:33;;;;;;;;;;;20.00;64.40;;;;;;5024756;28;19956;-70
2022/07/07 13:54:58;;;;;;;;;;;20.00;64.50;;;;;;5022673;28;20320;-71
2022/07/07 13:57:24;;;;;;;;;;;20.10;64.60;;;;;;5023293;28;20411;-71
2022/07/07 13:59:50;;;;;;;;;;;20.10;65.00;;;;;;5024557;28;19913;-71
2022/07/07 14:02:16;;;;;;;;;;;20.20;64.90;;;;;;5022051;28;20365;-72
2022/07/07 14:04:41;;;;;;;;;;;20.20;64.90;;;;;;5033264;28;20054;-71
2022/07/07 14:07:07;;;;;;;;;;;20.30;64.50;;;;;;5033728;28;19959;-72
2022/07/07 14:09:33;;;;;;;;;;;20.40;64.00;;;;;;5033717;28;19909;-71
2022/07/07 14:11:59;;;;;;;;;;;20.40;64.40;;;;;;5033116;28;20358;-69
2022/07/07 14:14:25;;;;;;;;;;;20.40;64.40;;;;;;5025273;28;19921;-70
2022/07/07 14:16:50;;;;;;;;;;;20.50;64.20;;;;;;5022993;28;19909;-71
2022/07/07 14:19:16;;;;;;;;;;;20.50;64.40;;;;;;5023300;28;19906;-72